Time;durP1;ratioP1;P1;durP2;ratioP2;P2;SDS_P1;SDS_P2;PMS_P1;PMS_P2;Temp;Humidity;BMP_temperature;BMP_pressure;BME280_temperature;BME280_humidity;BME280_pressure;Samples;Min_cycle;Max_cycle;Signal;HPM_P1;HPM_P2
2022/05/04 00:01:24;;;;;;;10.52;4.43;;;;;;;9.59;88.04;101874.06;6404420;23;20063;-72
2022/05/04 00:03:55;;;;;;;8.35;4.15;;;;;;;9.55;87.78;101872.59;6403649;23;20108;-69
2022/05/04 00:06:27;;;;;;;10.40;4.80;;;;;;;9.41;88.10;101868.22;6403014;23;20333;-69
2022/05/04 00:08:58;;;;;;;9.30;4.63;;;;;;;9.35;88.15;101868.59;6404452;23;20459;-70
2022/05/04 00:11:30;;;;;;;10.57;4.47;;;;;;;9.52;87.24;101867.53;6404149;23;20009;-68
2022/05/04 00:14:02;;;;;;;12.68;4.85;;;;;;;9.38;88.35;101873.63;6403813;23;20457;-69
2022/05/04 00:16:33;;;;;;;7.40;4.53;;;;;;;9.34;87.80;101874.78;6403455;23;20434;-68
2022/05/04 00:19:04;;;;;;;9.27;4.45;;;;;;;9.27;87.80;101872.53;6403979;23;20014;-69
2022/05/04 00:21:35;;;;;;;9.32;4.68;;;;;;;9.18;89.43;101875.72;6404340;23;20033;-69
2022/05/04 00:24:07;;;;;;;10.73;5.03;;;;;;;9.24;88.33;101879.72;6402904;23;20088;-68
2022/05/04 00:26:38;;;;;;;9.07;4.78;;;;;;;9.23;89.98;101868.44;6403868;23;20406;-69
2022/05/04 00:29:09;;;;;;;11.35;4.90;;;;;;;9.17;90.68;101873.22;6404093;23;20018;-68
2022/05/04 00:31:40;;;;;;;10.63;5.28;;;;;;;9.22;90.58;101869.38;6403558;23;20002;-68
2022/05/04 00:34:12;;;;;;;9.43;4.75;;;;;;;9.24;90.83;101877.13;6403566;23;20013;-69
2022/05/04 00:36:43;;;;;;;8.40;5.07;;;;;;;9.28;90.97;101876.00;6404267;23;20006;-68
2022/05/04 00:39:14;;;;;;;11.98;5.30;;;;;;;9.33;91.30;101870.47;6403603;23;20311;-68
2022/05/04 00:41:46;;;;;;;10.43;4.82;;;;;;;9.38;92.20;101871.03;6403647;23;20005;-71
2022/05/04 00:44:17;;;;;;;10.45;5.53;;;;;;;9.39;92.07;101868.31;6403049;23;20006;-68
2022/05/04 00:46:48;;;;;;;10.95;5.28;;;;;;;9.43;92.04;101866.31;6404053;23;20021;-68
2022/05/04 00:49:19;;;;;;;10.02;5.38;;;;;;;9.44;93.38;101866.25;6404223;23;20016;-71
2022/05/04 00:51:51;;;;;;;15.75;5.70;;;;;;;9.41;92.97;101863.81;6403836;23;20017;-68
2022/05/04 00:54:23;;;;;;;10.80;6.00;;;;;;;9.46;92.51;101868.75;6403606;23;20006;-71
2022/05/04 00:56:55;;;;;;;11.82;6.38;;;;;;;9.44;92.93;101866.25;6403480;23;20006;-69
2022/05/04 00:59:29;;;;;;;15.27;6.40;;;;;;;9.46;92.63;101860.91;6403808;23;20006;-68
2022/05/04 01:02:00;;;;;;;11.23;6.43;;;;;;;9.50;92.76;101865.84;6404081;23;20665;-68
2022/05/04 01:04:31;;;;;;;11.43;6.05;;;;;;;9.43;93.35;101859.34;6403096;23;20044;-69
2022/05/04 01:07:03;;;;;;;9.15;4.75;;;;;;;9.48;92.73;101867.72;6402375;23;20339;-69
2022/05/04 01:09:34;;;;;;;11.50;5.38;;;;;;;9.56;91.89;101859.41;6403832;23;20016;-70
2022/05/04 01:12:06;;;;;;;12.00;5.43;;;;;;;9.58;92.40;101859.28;6403694;23;20084;-69
2022/05/04 01:14:37;;;;;;;13.73;5.38;;;;;;;9.55;91.15;101867.34;6403135;23;20002;-68
2022/05/04 01:17:08;;;;;;;9.15;5.60;;;;;;;9.57;91.66;101865.47;6403794;23;20010;-70
2022/05/04 01:19:40;;;;;;;9.60;5.03;;;;;;;9.60;91.22;101866.09;6403890;23;20029;-68
2022/05/04 01:22:11;;;;;;;17.85;6.80;;;;;;;9.61;90.76;101859.09;6403968;23;20009;-70
2022/05/04 01:24:42;;;;;;;13.82;5.00;;;;;;;9.63;90.54;101860.69;6402828;23;20005;-69
2022/05/04 01:27:13;;;;;;;13.18;5.85;;;;;;;9.67;91.00;101861.31;6403658;23;19998;-69
2022/05/04 01:29:46;;;;;;;10.40;5.32;;;;;;;9.68;90.07;101868.22;6404072;23;20005;-69
2022/05/04 01:32:18;;;;;;;9.57;5.43;;;;;;;9.70;90.64;101868.97;6405804;23;20267;-68
2022/05/04 01:34:49;;;;;;;13.70;4.93;;;;;;;9.71;89.83;101863.63;6404957;23;20016;-68
2022/05/04 01:37:20;;;;;;;15.70;5.72;;;;;;;9.63;90.19;101865.91;6405755;23;20012;-68
2022/05/04 01:39:52;;;;;;;11.95;5.00;;;;;;;9.70;90.01;101864.59;6405201;23;20016;-68
2022/05/04 01:42:24;;;;;;;9.40;5.40;;;;;;;9.70;89.94;101861.13;6405499;23;20009;-70
2022/05/04 01:44:55;;;;;;;9.13;4.50;;;;;;;9.68;89.95;101863.81;6404654;23;20021;-68
2022/05/04 01:47:27;;;;;;;11.25;4.82;;;;;;;9.69;88.93;101860.25;6405612;23;20501;-69
2022/05/04 01:49:58;;;;;;;10.15;4.47;;;;;;;9.67;88.82;101866.56;6404889;23;20009;-69
2022/05/04 01:52:29;;;;;;;12.68;5.38;;;;;;;9.68;88.85;101863.00;6405857;23;20021;-68
2022/05/04 01:55:01;;;;;;;9.90;5.10;;;;;;;9.68;88.67;101861.22;6404959;23;20013;-71
2022/05/04 01:57:32;;;;;;;9.75;4.93;;;;;;;9.71;88.02;101858.41;6405914;23;20005;-68
2022/05/04 02:00:06;;;;;;;12.77;5.22;;;;;;;9.73;87.57;101855.66;6405408;23;20005;-71
2022/05/04 02:02:38;;;;;;;9.38;4.10;;;;;;;9.66;88.44;101849.16;6403281;23;20385;-68
2022/05/04 02:05:09;;;;;;;12.43;5.18;;;;;;;9.68;88.22;101857.75;6404005;23;20009;-69
2022/05/04 02:07:40;;;;;;;9.82;5.28;;;;;;;9.72;88.00;101857.47;6378536;23;20052;-68
2022/05/04 02:10:12;;;;;;;7.50;4.25;;;;;;;9.71;86.66;101852.34;6404741;23;20429;-68
2022/05/04 02:12:43;;;;;;;10.43;5.20;;;;;;;9.63;88.27;101858.06;6405630;23;20040;-70
2022/05/04 02:15:17;;;;;;;10.25;4.50;;;;;;;9.65;88.06;101852.72;6405067;23;20151;-69
2022/05/04 02:17:48;;;;;;;9.25;4.65;;;;;;;9.61;87.26;101852.06;6405095;23;20002;-69
2022/05/04 02:20:19;;;;;;;13.35;5.43;;;;;;;9.70;87.93;101850.66;6405777;23;20005;-71
2022/05/04 02:22:51;;;;;;;9.45;4.88;;;;;;;9.62;88.20;101847.69;6405348;23;20139;-69
2022/05/04 02:25:23;;;;;;;9.90;4.80;;;;;;;9.70;87.55;101850.66;6403572;23;20001;-70
2022/05/04 02:27:54;;;;;;;11.07;4.90;;;;;;;9.66;86.75;101844.78;6405042;23;20016;-69
2022/05/04 02:30:25;;;;;;;10.45;5.03;;;;;;;9.61;87.59;101846.84;6404971;23;20008;-68
2022/05/04 02:32:56;;;;;;;10.50;5.28;;;;;;;9.60;87.85;101849.56;6404626;23;20005;-71
2022/05/04 02:38:18;;;;;;;13.40;4.70;;;;;;;9.54;87.58;101844.72;6405275;23;20017;-68
2022/05/04 02:40:50;;;;;;;11.32;4.68;;;;;;;9.58;87.64;101846.19;6403963;23;20037;-70
2022/05/04 02:43:21;;;;;;;11.88;5.43;;;;;;;9.52;86.61;101847.44;6405424;23;20012;-69
2022/05/04 02:45:52;;;;;;;11.30;4.57;;;;;;;9.51;87.40;101851.00;6404419;23;20052;-70
2022/05/04 02:48:24;;;;;;;7.50;4.90;;;;;;;9.52;88.09;101849.22;6404989;23;20089;-68
2022/05/04 02:50:55;;;;;;;10.18;4.82;;;;;;;9.50;87.42;101841.47;6404296;23;20469;-68
2022/05/04 02:53:26;;;;;;;12.18;4.93;;;;;;;9.50;87.72;101844.91;6404822;23;20433;-68
2022/05/04 02:55:57;;;;;;;9.77;4.95;;;;;;;9.47;88.39;101834.66;6404610;23;20529;-68
2022/05/04 02:58:29;;;;;;;11.13;4.85;;;;;;;9.45;87.66;101833.09;6403920;23;20009;-70
2022/05/04 03:04:08;;;;;;;12.82;4.63;;;;;;;9.46;87.80;101832.13;6403911;23;20013;-71
2022/05/04 03:06:41;;;;;;;10.75;5.13;;;;;;;9.40;87.98;101837.78;6404818;23;20341;-68
2022/05/04 03:09:12;;;;;;;10.90;5.00;;;;;;;9.40;87.72;101830.78;6404539;23;20475;-68
2022/05/04 03:11:55;;;;;;;9.95;4.55;;;;;;;9.37;88.04;101828.34;6404628;23;20001;-69
2022/05/04 03:14:28;;;;;;;10.38;5.10;;;;;;;9.40;87.65;101829.94;6403532;23;20006;-68
2022/05/04 03:16:59;;;;;;;9.95;4.70;;;;;;;9.36;88.74;101826.69;6404763;23;20334;-68
2022/05/04 03:19:30;;;;;;;13.73;4.78;;;;;;;9.26;88.03;101825.56;6405005;23;20012;-69
2022/05/04 03:22:02;;;;;;;10.77;4.32;;;;;;;9.25;88.13;101823.91;6404775;23;20006;-71
2022/05/04 03:24:33;;;;;;;13.38;4.55;;;;;;;9.22;88.24;101818.88;6403947;23;20013;-68
2022/05/04 03:27:06;;;;;;;12.02;4.90;;;;;;;9.22;87.38;101824.94;6404552;23;20060;-68
2022/05/04 03:29:37;;;;;;;9.68;4.78;;;;;;;9.20;87.36;101816.31;6404250;23;20440;-68
2022/05/04 03:32:09;;;;;;;12.48;5.07;;;;;;;9.15;88.19;101814.97;6403404;23;20088;-70
2022/05/04 03:34:40;;;;;;;13.55;4.75;;;;;;;9.13;88.18;101819.44;6404301;23;20013;-70
2022/05/04 03:37:12;;;;;;;12.75;5.15;;;;;;;9.14;87.45;101827.19;6404577;23;19997;-67
2022/05/04 03:39:43;;;;;;;11.38;4.80;;;;;;;9.16;88.44;101827.91;6404246;23;20028;-68
2022/05/04 03:42:14;;;;;;;15.38;4.70;;;;;;;9.12;87.70;101822.97;6404609;23;20005;-68
2022/05/04 03:44:46;;;;;;;12.60;4.78;;;;;;;9.12;88.23;101820.38;6403866;23;20470;-68
2022/05/04 03:47:17;;;;;;;10.48;4.63;;;;;;;9.04;88.77;101815.63;6403611;23;20032;-68
2022/05/04 03:49:48;;;;;;;10.73;4.97;;;;;;;9.10;89.06;101823.09;6404303;23;20437;-68
2022/05/04 03:52:21;;;;;;;11.18;5.07;;;;;;;9.10;88.76;101824.88;6404169;23;20009;-68
2022/05/04 03:54:52;;;;;;;9.15;5.22;;;;;;;9.06;88.40;101819.00;6403917;23;20005;-68
2022/05/04 03:57:23;;;;;;;14.18;5.43;;;;;;;9.04;89.89;101820.03;6403792;23;20481;-69
2022/05/04 03:59:55;;;;;;;11.68;5.18;;;;;;;9.07;89.45;101820.66;6404333;23;20063;-68
2022/05/04 04:02:26;;;;;;;12.77;5.10;;;;;;;9.01;89.27;101821.03;6402994;23;20067;-68
2022/05/04 04:04:57;;;;;;;18.17;6.00;;;;;;;8.98;89.97;101818.66;6402589;23;20033;-68
2022/05/04 04:07:28;;;;;;;10.73;5.13;;;;;;;8.98;88.52;101821.25;6403421;23;20013;-71
2022/05/04 04:10:00;;;;;;;13.85;5.53;;;;;;;8.92;88.86;101826.84;6404299;23;20006;-68
2022/05/04 04:12:31;;;;;;;9.05;5.25;;;;;;;8.90;89.33;101820.88;6377411;23;20116;-68
2022/05/04 04:15:03;;;;;;;13.77;5.80;;;;;;;8.80;89.64;101822.41;6403803;23;20067;-69
2022/05/04 04:17:35;;;;;;;11.73;4.68;;;;;;;8.73;90.40;101821.91;6404651;23;20037;-68
2022/05/04 04:22:57;;;;;;;10.27;5.28;;;;;;;8.64;90.87;101817.28;6404036;23;20013;-71
2022/05/04 04:25:28;;;;;;;9.48;4.93;;;;;;;8.74;91.12;101813.97;6404540;23;20082;-68
2022/05/04 04:27:59;;;;;;;13.63;5.53;;;;;;;8.62;90.39;101822.56;6404515;23;20254;-68
2022/05/04 04:30:31;;;;;;;9.95;5.57;;;;;;;8.64;91.40;101823.34;6403459;23;20006;-68
2022/05/04 04:33:02;;;;;;;11.38;5.25;;;;;;;8.58;91.12;101826.31;6404337;23;20084;-67
2022/05/04 04:35:34;;;;;;;10.40;5.25;;;;;;;8.61;91.16;101825.28;6403381;23;20048;-67
2022/05/04 04:38:07;;;;;;;15.20;6.00;;;;;;;8.48;92.38;101820.78;6403650;23;20005;-69
2022/05/04 04:40:39;;;;;;;11.00;5.38;;;;;;;8.48;92.02;101826.00;6404197;23;20005;-67
2022/05/04 04:43:11;;;;;;;9.85;6.05;;;;;;;8.42;93.62;101831.63;6403477;23;20085;-68
2022/05/04 04:45:46;;;;;;;11.45;6.38;;;;;;;8.53;93.65;101830.97;6378356;23;20085;-71
2022/05/04 04:48:18;;;;;;;13.52;5.78;;;;;;;8.51;93.71;101838.88;6403508;23;20006;-69
2022/05/04 04:50:49;;;;;;;20.00;5.68;;;;;;;8.44;93.90;101826.28;6404783;23;20483;-69
2022/05/04 04:53:21;;;;;;;19.45;6.60;;;;;;;8.44;94.35;101824.53;6403666;23;20079;-68
2022/05/04 04:55:52;;;;;;;16.05;6.70;;;;;;;8.36;94.50;101824.09;6402864;23;20005;-70
2022/05/04 04:58:25;;;;;;;15.80;6.78;;;;;;;8.36;94.14;101820.66;6404429;23;20016;-68
2022/05/04 05:00:57;;;;;;;16.90;6.82;;;;;;;8.39;93.79;101830.97;6403962;23;20397;-68
2022/05/04 05:03:29;;;;;;;11.93;6.13;;;;;;;8.32;94.44;101822.63;6377450;23;20420;-69
2022/05/04 05:06:00;;;;;;;13.57;6.05;;;;;;;8.30;93.89;101819.28;6405479;23;20382;-69
2022/05/04 05:08:32;;;;;;;11.13;5.80;;;;;;;8.37;94.10;101828.47;6405643;23;20075;-68
2022/05/04 05:11:03;;;;;;;14.73;6.95;;;;;;;8.33;96.08;101823.44;6405541;23;20036;-71
2022/05/04 05:16:06;;;;;;;12.52;6.65;;;;;;;8.35;94.97;101835.50;6406258;23;20009;-69
2022/05/04 05:16:25;;;;;;;18.80;7.22;;;;;;;8.34;95.32;101831.22;6405476;23;20009;-68
2022/05/04 05:18:57;;;;;;;16.42;6.65;;;;;;;8.41;95.01;101831.69;6406568;23;20009;-68
2022/05/04 05:21:28;;;;;;;12.25;6.38;;;;;;;8.49;94.86;101832.09;6405326;23;20179;-68
2022/05/04 05:23:59;;;;;;;13.25;5.72;;;;;;;8.54;94.74;101837.88;6405953;23;20081;-71
2022/05/04 05:26:31;;;;;;;13.68;6.07;;;;;;;8.48;95.03;101838.22;6405712;23;20006;-70
2022/05/04 05:29:02;;;;;;;12.75;6.70;;;;;;;8.52;95.42;101835.38;6405428;23;20369;-68
2022/05/04 05:31:33;;;;;;;11.98;7.07;;;;;;;8.52;94.58;101837.97;6405613;23;20468;-69
2022/05/04 05:34:05;;;;;;;13.82;6.10;;;;;;;8.57;94.00;101842.91;6405859;23;20369;-70
2022/05/04 05:36:36;;;;;;;17.27;5.80;;;;;;;8.62;93.97;101837.41;6406342;23;20402;-69
2022/05/04 05:39:07;;;;;;;15.90;5.55;;;;;;;8.66;93.72;101836.28;6405306;23;20016;-68
2022/05/04 05:41:38;;;;;;;12.88;6.22;;;;;;;8.72;94.69;101833.31;6404694;23;20006;-67
2022/05/04 05:44:10;;;;;;;24.25;6.93;;;;;;;8.82;93.67;101841.41;6405651;23;20025;-68
2022/05/04 05:46:41;;;;;;;14.07;6.10;;;;;;;8.86;92.34;101835.91;6404874;23;20013;-68
2022/05/04 05:49:13;;;;;;;16.75;5.70;;;;;;;8.82;91.34;101839.63;6405887;23;20490;-68
2022/05/04 05:51:44;;;;;;;16.52;6.82;;;;;;;8.91;90.46;101838.25;6405466;23;20516;-69
2022/05/04 05:54:15;;;;;;;10.82;6.30;;;;;;;8.95;90.44;101837.97;6404240;23;20104;-68
2022/05/04 05:56:46;;;;;;;13.88;6.50;;;;;;;9.04;89.86;101835.69;6405898;23;20016;-69
2022/05/04 05:59:18;;;;;;;16.10;6.28;;;;;;;9.10;89.67;101841.41;6405190;23;20019;-71
2022/05/04 06:01:49;;;;;;;12.88;6.07;;;;;;;9.15;88.47;101838.47;6404627;23;20471;-69
2022/05/04 06:04:20;;;;;;;13.82;6.43;;;;;;;9.22;88.72;101842.41;6402728;23;20008;-70
2022/05/04 06:06:52;;;;;;;16.55;7.18;;;;;;;9.31;87.55;101844.41;6404409;23;20010;-69
2022/05/04 06:09:23;;;;;;;12.40;6.05;;;;;;;9.35;86.58;101845.91;6404723;23;20005;-69
2022/05/04 06:11:54;;;;;;;11.55;6.43;;;;;;;9.45;85.89;101854.00;6405137;23;20337;-70
2022/05/04 06:14:26;;;;;;;12.77;5.90;;;;;;;9.56;87.42;101848.09;6393452;23;20096;-69
2022/05/04 06:16:57;;;;;;;16.38;5.95;;;;;;;9.66;86.20;101855.25;6403985;23;19998;-69
2022/05/04 06:19:28;;;;;;;11.43;6.25;;;;;;;9.70;82.98;101853.28;6404336;23;20013;-71
2022/05/04 06:21:59;;;;;;;12.30;6.20;;;;;;;9.82;83.92;101852.47;6404358;23;20074;-69
2022/05/04 06:24:31;;;;;;;13.57;6.63;;;;;;;9.87;82.89;101847.75;6404587;23;20012;-72
2022/05/04 06:27:02;;;;;;;14.77;6.03;;;;;;;10.02;83.93;101855.56;6404174;23;20009;-72
2022/05/04 06:35:13;;;;;;;12.23;6.60;;;;;;;10.26;81.45;101859.16;6404108;23;20017;-69
2022/05/04 06:37:45;;;;;;;16.13;6.72;;;;;;;10.36;82.23;101857.63;6404542;23;20076;-70
2022/05/04 06:40:16;;;;;;;13.27;5.68;;;;;;;10.41;78.87;101850.28;6404481;23;20005;-70
2022/05/04 06:42:47;;;;;;;13.10;5.55;;;;;;;10.46;78.38;101850.81;6404146;23;20012;-73
2022/05/04 06:45:19;;;;;;;15.65;5.82;;;;;;;10.50;77.64;101858.47;6403536;23;20021;-69
2022/05/04 06:47:50;;;;;;;9.23;5.72;;;;;;;10.54;77.56;101862.56;6404173;23;20010;-71
2022/05/04 06:50:21;;;;;;;12.68;5.32;;;;;;;10.64;77.11;101866.22;6402406;23;20009;-70
2022/05/04 06:52:53;;;;;;;15.35;5.30;;;;;;;10.74;76.85;101862.00;6402901;23;20017;-69
2022/05/04 06:55:24;;;;;;;11.55;5.00;;;;;;;10.79;74.21;101859.91;6402509;23;20083;-71
2022/05/04 06:57:56;;;;;;;15.68;5.30;;;;;;;10.85;74.46;101858.66;6404128;23;20001;-68
2022/05/04 07:00:27;;;;;;;14.70;5.82;;;;;;;10.95;74.46;101863.16;6402798;23;20088;-70
2022/05/04 07:02:58;;;;;;;10.75;5.07;;;;;;;10.95;73.41;101859.69;6403931;23;20009;-71
2022/05/04 07:05:29;;;;;;;13.25;5.13;;;;;;;11.04;73.71;101855.59;6402861;23;20333;-72
2022/05/04 07:08:01;;;;;;;13.18;5.38;;;;;;;11.18;74.92;101858.06;6402303;23;20513;-71
2022/05/04 07:10:32;;;;;;;14.77;5.97;;;;;;;11.40;74.55;101859.97;6402897;23;20060;-70
2022/05/04 07:13:03;;;;;;;12.27;5.75;;;;;;;11.63;73.40;101859.16;6400178;23;20093;-70
2022/05/04 07:15:35;;;;;;;14.93;5.45;;;;;;;11.67;70.21;101859.78;6401077;23;20437;-72
2022/05/04 07:18:06;;;;;;;10.82;5.25;;;;;;;11.73;69.16;101851.44;6403049;23;20006;-69
2022/05/04 07:20:37;;;;;;;12.20;5.38;;;;;;;11.79;68.42;101837.03;6401849;23;20029;-70
2022/05/04 07:23:09;;;;;;;13.13;5.40;;;;;;;12.04;68.73;101852.66;6403997;23;20013;-70
2022/05/04 07:25:40;;;;;;;11.88;5.18;;;;;;;12.16;67.45;101846.50;6402371;23;20084;-69
2022/05/04 07:28:11;;;;;;;9.95;5.15;;;;;;;12.31;66.64;101841.00;6403662;23;20005;-69
2022/05/04 07:30:43;;;;;;;10.77;4.82;;;;;;;12.43;64.57;101849.78;6403710;23;20383;-69
2022/05/04 07:33:14;;;;;;;10.32;4.95;;;;;;;12.53;64.99;101846.28;6402801;23;20341;-70
2022/05/04 07:35:45;;;;;;;10.40;5.30;;;;;;;12.67;63.77;101853.13;6402617;23;20001;-70
2022/05/04 07:38:16;;;;;;;13.00;5.10;;;;;;;12.82;64.07;101849.31;6403363;23;20450;-69
2022/05/04 07:43:38;;;;;;;11.25;5.30;;;;;;;13.08;61.70;101849.88;6403773;23;20040;-71
2022/05/04 07:46:09;;;;;;;11.50;5.63;;;;;;;13.10;61.08;101847.13;6376744;23;20021;-70
2022/05/04 07:48:40;;;;;;;13.35;5.35;;;;;;;13.10;59.36;101853.22;6403105;23;20084;-73
2022/05/04 07:51:13;;;;;;;14.05;6.22;;;;;;;13.22;60.47;101856.69;6402953;23;20012;-70
2022/05/04 07:53:44;;;;;;;13.07;5.60;;;;;;;13.37;61.50;101846.72;6402377;23;20321;-73
2022/05/04 07:56:16;;;;;;;10.45;5.70;;;;;;;13.52;60.77;101853.38;6402925;23;20110;-70
2022/05/04 07:58:47;;;;;;;11.88;6.35;;;;;;;13.57;62.25;101858.31;6403442;23;20396;-73
2022/05/04 08:04:17;;;;;;;14.85;6.15;;;;;;;13.66;58.07;101856.72;6401935;23;20018;-73
2022/05/04 08:06:49;;;;;;;11.70;5.70;;;;;;;13.75;57.75;101864.69;6402803;23;20005;-73
2022/05/04 08:09:20;;;;;;;11.88;5.55;;;;;;;13.96;58.56;101863.88;6400916;23;20036;-70
2022/05/04 08:11:51;;;;;;;7.60;5.32;;;;;;;14.04;56.90;101870.19;6400330;23;20059;-70
2022/05/04 08:14:24;;;;;;;11.05;6.20;;;;;;;14.08;57.41;101861.06;6400056;23;20522;-73
2022/05/04 08:16:55;;;;;;;10.73;5.68;;;;;;;14.16;56.73;101863.03;6403534;23;20013;-70
2022/05/04 08:19:27;;;;;;;10.60;5.88;;;;;;;14.23;56.08;101858.94;6402776;23;20425;-70
2022/05/04 08:21:58;;;;;;;9.75;5.68;;;;;;;14.42;56.55;101854.75;6401176;23;20516;-70
2022/05/04 08:24:29;;;;;;;13.20;5.28;;;;;;;14.53;55.28;101852.91;6400296;23;20001;-71
2022/05/04 08:27:00;;;;;;;10.60;6.15;;;;;;;14.71;54.87;101858.41;6402204;23;20457;-69
2022/05/04 08:29:32;;;;;;;12.10;6.18;;;;;;;14.75;54.97;101849.25;6400026;23;20051;-71
2022/05/04 08:32:03;;;;;;;12.18;6.70;;;;;;;14.67;54.14;101857.00;6400044;23;20012;-69
2022/05/04 08:34:35;;;;;;;9.82;5.13;;;;;;;14.84;53.02;101856.34;6401953;23;20013;-69
2022/05/04 08:37:06;;;;;;;8.18;5.60;;;;;;;14.89;52.67;101853.34;6402163;23;20353;-70
2022/05/04 08:39:37;;;;;;;14.00;6.53;;;;;;;15.00;54.85;101857.66;6403580;23;20005;-69
2022/05/04 08:42:09;;;;;;;11.07;6.00;;;;;;;14.90;52.15;101860.28;6404602;23;20013;-69
2022/05/04 08:44:42;;;;;;;11.85;6.80;;;;;;;15.06;50.94;101857.97;6402243;23;20088;-69
2022/05/04 08:47:17;;;;;;;9.10;5.90;;;;;;;15.26;52.42;101858.00;6404595;23;20080;-69
2022/05/04 08:49:49;;;;;;;12.48;6.28;;;;;;;15.13;50.63;101853.00;6403593;23;20016;-69
2022/05/04 08:52:21;;;;;;;9.77;5.93;;;;;;;15.27;51.04;101849.97;6402861;23;20013;-70
2022/05/04 08:54:55;;;;;;;12.10;6.38;;;;;;;15.47;51.86;101842.91;6403645;23;20517;-74
2022/05/04 08:57:26;;;;;;;9.65;6.07;;;;;;;15.60;52.40;101850.56;6404718;23;20773;-73
2022/05/04 08:59:57;;;;;;;12.88;5.72;;;;;;;15.62;49.90;101853.91;6405324;23;20048;-75
2022/05/04 09:02:29;;;;;;;11.05;5.88;;;;;;;15.64;48.99;101845.81;6404797;23;20068;-75
2022/05/04 09:05:12;;;;;;;9.82;5.25;;;;;;;15.85;49.58;101851.00;6378811;23;20010;-70
2022/05/04 09:07:44;;;;;;;;;;;;;;;16.36;49.97;101852.44;6402924;23;20005;-70
2022/05/04 09:10:21;;;;;;;11.05;5.13;;;;;;;15.91;47.98;101848.66;6404089;23;19908;-74
2022/05/04 09:12:54;;;;;;;8.80;5.10;;;;;;;15.93;48.62;101846.69;6404733;23;20016;-72
2022/05/04 09:15:30;;;;;;;10.18;6.00;;;;;;;16.10;46.73;101845.16;6405037;23;20016;-72
2022/05/04 09:18:03;;;;;;;11.57;6.22;;;;;;;16.09;47.37;101840.00;6404328;23;20081;-75
2022/05/04 09:20:53;;;;;;;10.55;5.82;;;;;;;16.34;47.41;101839.38;6401360;23;20529;-72
2022/05/04 09:23:33;;;;;;;9.60;5.35;;;;;;;16.36;47.27;101833.94;6379244;23;20036;-74
2022/05/04 09:26:08;;;;;;;10.80;5.72;;;;;;;16.50;46.44;101831.66;6403580;23;20029;-72
2022/05/04 09:28:39;;;;;;;12.45;5.90;;;;;;;16.44;47.00;101821.69;6378618;23;20076;-70
2022/05/04 09:31:14;;;;;;;11.00;6.88;;;;;;;16.57;48.12;101828.44;6405396;23;20002;-71
2022/05/04 09:33:56;;;;;;;11.15;6.30;;;;;;;16.76;47.61;101829.22;6405404;23;20001;-72
2022/05/04 09:44:54;;;;;;;12.23;6.47;;;;;;;16.92;47.19;101818.00;6404797;23;20002;-71
2022/05/04 09:45:20;;;;;;;12.90;6.55;;;;;;;16.77;44.97;101830.88;6401887;23;20029;-72
2022/05/04 09:47:51;;;;;;;10.73;5.68;;;;;;;16.83;46.87;101832.13;6404501;23;20063;-70
2022/05/04 09:50:27;;;;;;;12.48;6.78;;;;;;;16.93;46.77;101832.06;6377670;23;20397;-73
2022/05/04 09:53:00;;;;;;;10.00;5.65;;;;;;;16.85;46.64;101829.31;6402934;23;20088;-72
2022/05/04 09:55:42;;;;;;;11.20;5.95;;;;;;;17.03;44.21;101830.22;6404585;23;20369;-72
2022/05/04 09:58:26;;;;;;;9.70;5.38;;;;;;;17.09;45.09;101820.84;6405462;23;20013;-74
2022/05/04 10:00:59;;;;;;;9.25;5.75;;;;;;;16.73;42.50;101818.06;6404438;23;20006;-71
2022/05/04 10:03:32;;;;;;;11.00;6.03;;;;;;;17.09;44.99;101826.97;6405643;23;20479;-74
2022/05/04 10:06:05;;;;;;;10.15;5.93;;;;;;;17.19;43.81;101819.78;6378370;23;20010;-71
2022/05/04 10:08:36;;;;;;;10.97;5.93;;;;;;;17.27;43.20;101819.03;6406725;23;20463;-74
2022/05/04 10:11:08;;;;;;;14.85;7.18;;;;;;;16.99;43.28;101816.44;6406108;23;20013;-74
2022/05/04 10:13:39;;;;;;;9.48;5.88;;;;;;;17.02;43.05;101812.66;6405669;23;20277;-74
2022/05/04 10:16:12;;;;;;;10.82;5.90;;;;;;;17.30;44.01;101813.44;6405796;23;19998;-75
2022/05/04 10:18:46;;;;;;;;;;;;;;;17.94;43.78;101819.50;6406366;23;20009;-73
2022/05/04 10:21:18;;;;;;;8.60;5.82;;;;;;;17.27;42.48;101811.09;6406523;23;20317;-71
2022/05/04 10:23:55;;;;;;;11.30;5.23;;;;;;;17.50;42.13;101807.03;6401546;23;20013;-71
2022/05/04 10:26:38;;;;;;;11.85;6.28;;;;;;;17.66;44.23;101810.81;6404596;23;20421;-73
2022/05/04 10:32:32;;;;;;;10.38;6.30;;;;;;;18.03;42.25;101809.78;6404012;23;20017;-71
2022/05/04 10:35:14;;;;;;;12.35;6.40;;;;;;;18.02;42.49;101808.94;6401323;23;20001;-72
2022/05/04 10:37:51;;;;;;;9.70;5.90;;;;;;;17.89;41.83;101809.34;6403595;23;20016;-73
2022/05/04 10:40:29;;;;;;;11.07;5.90;;;;;;;17.78;41.21;101806.94;6403811;23;20001;-72
2022/05/04 10:43:06;;;;;;;9.18;5.78;;;;;;;17.91;41.16;101810.03;6403866;23;20021;-73
2022/05/04 10:45:42;;;;;;;9.85;5.35;;;;;;;18.00;40.89;101808.28;6403389;23;20040;-71
2022/05/04 10:48:19;;;;;;;11.02;5.78;;;;;;;18.11;41.39;101812.50;6404196;23;20051;-73
2022/05/04 10:51:09;;;;;;;11.35;6.43;;;;;;;18.19;40.22;101808.06;6404197;23;20040;-71
2022/05/04 10:53:43;;;;;;;11.20;6.03;;;;;;;18.42;39.65;101799.56;6403588;23;20389;-72
2022/05/04 10:56:16;;;;;;;12.32;6.28;;;;;;;18.31;40.21;101808.63;6403244;23;20001;-73
2022/05/04 10:58:50;;;;;;;9.70;6.07;;;;;;;18.21;39.07;101798.13;6410365;23;20070;-71
2022/05/04 11:01:30;;;;;;;9.82;6.05;;;;;;;18.43;39.42;101787.97;6417588;23;20002;-70
2022/05/04 11:04:10;;;;;;;9.63;5.78;;;;;;;18.61;39.46;101790.53;6408649;23;20021;-71
2022/05/04 11:06:56;;;;;;;9.27;6.15;;;;;;;18.47;38.56;101784.00;6405136;23;20006;-70
2022/05/04 11:09:31;;;;;;;12.32;6.65;;;;;;;18.26;39.99;101795.03;6404632;23;20002;-72
2022/05/04 11:12:05;;;;;;;10.90;6.18;;;;;;;18.61;38.75;101780.75;6404846;23;20009;-71
2022/05/04 11:14:37;;;;;;;11.52;6.40;;;;;;;18.67;40.48;101780.09;6403603;23;20096;-71
2022/05/04 11:17:14;;;;;;;12.63;6.93;;;;;;;18.64;39.53;101791.06;6403160;23;20040;-72
2022/05/04 11:19:47;;;;;;;10.88;6.35;;;;;;;18.76;40.43;101773.03;6403650;23;20072;-71
2022/05/04 11:22:19;;;;;;;10.00;6.50;;;;;;;19.02;41.12;101777.44;6402870;23;20005;-70
2022/05/04 11:24:50;;;;;;;9.80;6.00;;;;;;;19.17;38.56;101775.81;6403178;23;20016;-72
2022/05/04 11:27:23;;;;;;;10.30;5.70;;;;;;;18.91;38.46;101778.56;6403570;23;20001;-73
2022/05/04 11:29:57;;;;;;;11.82;6.63;;;;;;;18.88;38.35;101781.53;6377144;23;20019;-73
2022/05/04 11:32:32;;;;;;;11.00;6.35;;;;;;;18.89;40.50;101778.72;6401380;23;20009;-73
2022/05/04 11:35:04;;;;;;;10.43;6.65;;;;;;;18.76;39.55;101769.56;6403139;23;20006;-74
2022/05/04 11:37:38;;;;;;;11.45;6.20;;;;;;;18.92;38.67;101772.25;6403333;23;20426;-74
2022/05/04 11:40:15;;;;;;;9.68;6.60;;;;;;;19.25;38.69;101767.84;6402835;23;20005;-71
2022/05/04 11:42:48;;;;;;;10.65;5.90;;;;;;;19.18;38.37;101767.66;6403363;23;20012;-73
2022/05/04 11:45:20;;;;;;;11.75;6.22;;;;;;;19.29;37.35;101758.53;6401650;23;20523;-72
2022/05/04 11:47:52;;;;;;;12.20;6.53;;;;;;;19.69;38.98;101763.03;6402792;23;20014;-72
2022/05/04 11:50:23;;;;;;;11.30;5.80;;;;;;;19.68;37.07;101763.22;6402554;23;20009;-73
2022/05/04 11:52:54;;;;;;;9.17;5.73;;;;;;;19.85;37.53;101737.41;6402590;23;20079;-73
2022/05/04 11:55:25;;;;;;;8.93;5.57;;;;;;;19.78;36.80;101760.41;6402569;23;20028;-72
2022/05/04 11:57:59;;;;;;;9.30;6.10;;;;;;;19.66;36.33;101744.78;6403978;23;20136;-73
2022/05/04 12:00:30;;;;;;;12.55;6.20;;;;;;;19.72;36.80;101735.28;6376844;23;20009;-72
2022/05/04 12:03:05;;;;;;;9.87;5.40;;;;;;;19.93;36.58;101745.41;6403902;23;20349;-72
2022/05/04 12:05:38;;;;;;;10.80;6.75;;;;;;;19.68;36.23;101749.91;6403033;23;20688;-73
2022/05/04 12:08:10;;;;;;;9.23;5.60;;;;;;;19.92;36.08;101747.22;6403121;23;20434;-73
2022/05/04 12:10:41;;;;;;;12.60;6.17;;;;;;;19.85;35.01;101743.59;6402886;23;20012;-72
2022/05/04 12:13:17;;;;;;;11.60;6.80;;;;;;;19.77;35.64;101742.75;6403090;23;20588;-73
2022/05/04 12:15:49;;;;;;;8.93;6.15;;;;;;;19.88;36.77;101732.59;6402945;23;20016;-73
2022/05/04 12:18:27;;;;;;;8.25;5.97;;;;;;;20.04;37.33;101726.44;6403871;23;20005;-72